sensor_id;sensor_type;location;lat;lon;timestamp;P1;durP1;ratioP1;P2;durP2;ratioP2
10934;SDS011;5520;45.752;4.874;2023-04-10T00:02:24;3.93;;;3.53;;
10934;SDS011;5520;45.752;4.874;2023-04-10T00:04:52;4.63;;;3.20;;
10934;SDS011;5520;45.752;4.874;2023-04-10T00:07:20;4.33;;;3.87;;
10934;SDS011;5520;45.752;4.874;2023-04-10T00:09:48;3.40;;;3.10;;
10934;SDS011;5520;45.752;4.874;2023-04-10T00:12:18;5.57;;;3.80;;
10934;SDS011;5520;45.752;4.874;2023-04-10T00:14:46;6.50;;;3.80;;
10934;SDS011;5520;45.752;4.874;2023-04-10T00:17:13;6.17;;;4.07;;
10934;SDS011;5520;45.752;4.874;2023-04-10T00:19:41;6.40;;;3.97;;
10934;SDS011;5520;45.752;4.874;2023-04-10T00:22:09;6.43;;;4.30;;
10934;SDS011;5520;45.752;4.874;2023-04-10T00:24:37;4.73;;;3.90;;
10934;SDS011;5520;45.752;4.874;2023-04-10T00:27:05;5.70;;;4.13;;
10934;SDS011;5520;45.752;4.874;2023-04-10T00:29:35;5.17;;;4.17;;
10934;SDS011;5520;45.752;4.874;2023-04-10T00:32:03;5.17;;;4.10;;
10934;SDS011;5520;45.752;4.874;2023-04-10T00:34:30;5.23;;;4.67;;
10934;SDS011;5520;45.752;4.874;2023-04-10T00:36:58;6.10;;;4.37;;
10934;SDS011;5520;45.752;4.874;2023-04-10T00:39:26;5.70;;;4.27;;
10934;SDS011;5520;45.752;4.874;2023-04-10T00:41:55;6.33;;;4.07;;
10934;SDS011;5520;45.752;4.874;2023-04-10T00:44:23;6.57;;;4.30;;
10934;SDS011;5520;45.752;4.874;2023-04-10T00:46:52;5.00;;;4.50;;
10934;SDS011;5520;45.752;4.874;2023-04-10T00:49:20;8.00;;;4.73;;
10934;SDS011;5520;45.752;4.874;2023-04-10T00:51:48;8.17;;;4.50;;
10934;SDS011;5520;45.752;4.874;2023-04-10T00:54:16;6.97;;;4.13;;
10934;SDS011;5520;45.752;4.874;2023-04-10T00:56:44;6.60;;;4.67;;
10934;SDS011;5520;45.752;4.874;2023-04-10T00:59:13;9.33;;;4.53;;
10934;SDS011;5520;45.752;4.874;2023-04-10T01:01:41;8.83;;;5.00;;
10934;SDS011;5520;45.752;4.874;2023-04-10T01:04:10;5.70;;;4.57;;
10934;SDS011;5520;45.752;4.874;2023-04-10T01:06:42;6.07;;;4.17;;
10934;SDS011;5520;45.752;4.874;2023-04-10T01:09:16;23.07;;;16.53;;
10934;SDS011;5520;45.752;4.874;2023-04-10T01:11:49;18.13;;;12.77;;
10934;SDS011;5520;45.752;4.874;2023-04-10T01:14:18;9.03;;;5.70;;
10934;SDS011;5520;45.752;4.874;2023-04-10T01:16:50;10.73;;;4.50;;
10934;SDS011;5520;45.752;4.874;2023-04-10T01:19:25;5.63;;;4.53;;
10934;SDS011;5520;45.752;4.874;2023-04-10T01:21:56;5.23;;;4.30;;
10934;SDS011;5520;45.752;4.874;2023-04-10T01:24:30;5.10;;;4.60;;
10934;SDS011;5520;45.752;4.874;2023-04-10T01:27:09;7.67;;;4.40;;
10934;SDS011;5520;45.752;4.874;2023-04-10T01:29:40;6.63;;;4.57;;
10934;SDS011;5520;45.752;4.874;2023-04-10T01:32:12;16.23;;;5.60;;
10934;SDS011;5520;45.752;4.874;2023-04-10T01:34:41;8.63;;;5.07;;
10934;SDS011;5520;45.752;4.874;2023-04-10T01:37:11;7.60;;;4.50;;
10934;SDS011;5520;45.752;4.874;2023-04-10T01:39:40;7.57;;;5.17;;
10934;SDS011;5520;45.752;4.874;2023-04-10T01:42:09;6.33;;;4.43;;
10934;SDS011;5520;45.752;4.874;2023-04-10T01:44:40;7.73;;;4.30;;
10934;SDS011;5520;45.752;4.874;2023-04-10T01:47:10;4.93;;;4.13;;
10934;SDS011;5520;45.752;4.874;2023-04-10T01:49:41;9.73;;;5.20;;
10934;SDS011;5520;45.752;4.874;2023-04-10T01:52:10;6.83;;;4.07;;
10934;SDS011;5520;45.752;4.874;2023-04-10T01:54:38;6.77;;;4.47;;
10934;SDS011;5520;45.752;4.874;2023-04-10T01:57:06;9.23;;;4.40;;
10934;SDS011;5520;45.752;4.874;2023-04-10T01:59:37;7.93;;;4.30;;
10934;SDS011;5520;45.752;4.874;2023-04-10T02:02:05;8.27;;;4.70;;
10934;SDS011;5520;45.752;4.874;2023-04-10T02:04:38;7.57;;;4.57;;
10934;SDS011;5520;45.752;4.874;2023-04-10T02:07:08;6.77;;;4.93;;
10934;SDS011;5520;45.752;4.874;2023-04-10T02:09:53;10.37;;;4.80;;
10934;SDS011;5520;45.752;4.874;2023-04-10T02:12:25;13.90;;;4.77;;
10934;SDS011;5520;45.752;4.874;2023-04-10T02:14:55;9.03;;;4.90;;
10934;SDS011;5520;45.752;4.874;2023-04-10T02:17:26;6.23;;;4.87;;
10934;SDS011;5520;45.752;4.874;2023-04-10T02:19:56;8.47;;;4.17;;
10934;SDS011;5520;45.752;4.874;2023-04-10T02:22:25;5.17;;;4.33;;
10934;SDS011;5520;45.752;4.874;2023-04-10T02:24:53;4.67;;;4.20;;
10934;SDS011;5520;45.752;4.874;2023-04-10T02:27:26;5.63;;;4.57;;
10934;SDS011;5520;45.752;4.874;2023-04-10T02:29:54;8.27;;;5.13;;
10934;SDS011;5520;45.752;4.874;2023-04-10T02:32:22;5.03;;;4.13;;
10934;SDS011;5520;45.752;4.874;2023-04-10T02:34:50;4.53;;;4.10;;
10934;SDS011;5520;45.752;4.874;2023-04-10T02:37:19;6.23;;;4.60;;
10934;SDS011;5520;45.752;4.874;2023-04-10T02:39:47;4.70;;;4.20;;
10934;SDS011;5520;45.752;4.874;2023-04-10T02:42:15;7.77;;;4.50;;
10934;SDS011;5520;45.752;4.874;2023-04-10T02:44:43;4.40;;;4.00;;
10934;SDS011;5520;45.752;4.874;2023-04-10T02:47:11;4.77;;;4.27;;
10934;SDS011;5520;45.752;4.874;2023-04-10T02:49:39;7.07;;;4.37;;
10934;SDS011;5520;45.752;4.874;2023-04-10T02:52:07;5.20;;;4.57;;
10934;SDS011;5520;45.752;4.874;2023-04-10T02:54:37;6.63;;;4.30;;
10934;SDS011;5520;45.752;4.874;2023-04-10T02:57:04;4.60;;;4.20;;
10934;SDS011;5520;45.752;4.874;2023-04-10T02:59:32;5.40;;;4.40;;
10934;SDS011;5520;45.752;4.874;2023-04-10T03:02:00;6.43;;;4.63;;
10934;SDS011;5520;45.752;4.874;2023-04-10T03:04:30;6.63;;;5.00;;
10934;SDS011;5520;45.752;4.874;2023-04-10T03:06:58;5.90;;;4.87;;
10934;SDS011;5520;45.752;4.874;2023-04-10T03:09:26;5.00;;;4.50;;
10934;SDS011;5520;45.752;4.874;2023-04-10T03:11:56;7.10;;;4.83;;
10934;SDS011;5520;45.752;4.874;2023-04-10T03:14:24;5.37;;;4.73;;
10934;SDS011;5520;45.752;4.874;2023-04-10T03:16:52;6.10;;;4.97;;
10934;SDS011;5520;45.752;4.874;2023-04-10T03:19:20;4.83;;;4.37;;
10934;SDS011;5520;45.752;4.874;2023-04-10T03:21:48;6.20;;;5.03;;
10934;SDS011;5520;45.752;4.874;2023-04-10T03:24:17;7.17;;;5.10;;
10934;SDS011;5520;45.752;4.874;2023-04-10T03:26:45;6.77;;;6.07;;
10934;SDS011;5520;45.752;4.874;2023-04-10T03:29:14;6.40;;;5.80;;
10934;SDS011;5520;45.752;4.874;2023-04-10T03:31:44;5.70;;;4.53;;
10934;SDS011;5520;45.752;4.874;2023-04-10T03:34:12;5.03;;;4.33;;
10934;SDS011;5520;45.752;4.874;2023-04-10T03:36:40;6.83;;;5.40;;
10934;SDS011;5520;45.752;4.874;2023-04-10T03:39:08;5.30;;;4.57;;
10934;SDS011;5520;45.752;4.874;2023-04-10T03:41:36;7.27;;;4.67;;
10934;SDS011;5520;45.752;4.874;2023-04-10T03:44:04;6.63;;;5.43;;
10934;SDS011;5520;45.752;4.874;2023-04-10T03:46:33;5.90;;;4.37;;
10934;SDS011;5520;45.752;4.874;2023-04-10T03:49:01;7.13;;;5.30;;
10934;SDS011;5520;45.752;4.874;2023-04-10T03:51:29;5.40;;;4.90;;
10934;SDS011;5520;45.752;4.874;2023-04-10T03:53:57;6.10;;;4.73;;
10934;SDS011;5520;45.752;4.874;2023-04-10T03:56:26;5.10;;;4.60;;
10934;SDS011;5520;45.752;4.874;2023-04-10T03:58:54;6.13;;;5.17;;
10934;SDS011;5520;45.752;4.874;2023-04-10T04:01:22;6.10;;;5.20;;
10934;SDS011;5520;45.752;4.874;2023-04-10T04:03:51;6.70;;;5.30;;
10934;SDS011;5520;45.752;4.874;2023-04-10T04:06:20;7.63;;;5.17;;
10934;SDS011;5520;45.752;4.874;2023-04-10T04:08:48;6.87;;;5.20;;
10934;SDS011;5520;45.752;4.874;2023-04-10T04:11:16;6.30;;;4.83;;
10934;SDS011;5520;45.752;4.874;2023-04-10T04:13:43;5.80;;;4.53;;
10934;SDS011;5520;45.752;4.874;2023-04-10T04:16:11;6.13;;;4.90;;
10934;SDS011;5520;45.752;4.874;2023-04-10T04:18:39;7.87;;;5.57;;
10934;SDS011;5520;45.752;4.874;2023-04-10T04:21:09;6.93;;;4.90;;
10934;SDS011;5520;45.752;4.874;2023-04-10T04:23:37;6.87;;;5.20;;
10934;SDS011;5520;45.752;4.874;2023-04-10T04:26:05;9.13;;;5.47;;
10934;SDS011;5520;45.752;4.874;2023-04-10T04:28:33;7.20;;;4.83;;
10934;SDS011;5520;45.752;4.874;2023-04-10T04:31:01;5.77;;;4.90;;
10934;SDS011;5520;45.752;4.874;2023-04-10T04:33:29;5.17;;;4.67;;
10934;SDS011;5520;45.752;4.874;2023-04-10T04:35:57;6.10;;;4.47;;
10934;SDS011;5520;45.752;4.874;2023-04-10T04:38:26;5.27;;;4.77;;
10934;SDS011;5520;45.752;4.874;2023-04-10T04:40:54;4.80;;;3.83;;
10934;SDS011;5520;45.752;4.874;2023-04-10T04:43:22;5.93;;;4.93;;
10934;SDS011;5520;45.752;4.874;2023-04-10T04:45:50;6.67;;;4.80;;
10934;SDS011;5520;45.752;4.874;2023-04-10T04:48:18;6.00;;;4.57;;
10934;SDS011;5520;45.752;4.874;2023-04-10T04:50:46;6.87;;;4.37;;
10934;SDS011;5520;45.752;4.874;2023-04-10T04:53:14;6.70;;;4.27;;
10934;SDS011;5520;45.752;4.874;2023-04-10T04:55:43;4.63;;;4.23;;
10934;SDS011;5520;45.752;4.874;2023-04-10T04:58:11;6.50;;;4.50;;
10934;SDS011;5520;45.752;4.874;2023-04-10T05:00:39;5.17;;;4.17;;
10934;SDS011;5520;45.752;4.874;2023-04-10T05:03:07;7.73;;;5.03;;
10934;SDS011;5520;45.752;4.874;2023-04-10T05:05:35;6.53;;;4.60;;
10934;SDS011;5520;45.752;4.874;2023-04-10T05:08:03;7.23;;;4.53;;
10934;SDS011;5520;45.752;4.874;2023-04-10T05:10:31;6.03;;;4.80;;
10934;SDS011;5520;45.752;4.874;2023-04-10T05:13:00;4.90;;;4.40;;
10934;SDS011;5520;45.752;4.874;2023-04-10T05:15:28;7.70;;;4.30;;
10934;SDS011;5520;45.752;4.874;2023-04-10T05:17:56;5.47;;;4.43;;
10934;SDS011;5520;45.752;4.874;2023-04-10T05:20:25;6.20;;;4.50;;
10934;SDS011;5520;45.752;4.874;2023-04-10T05:22:52;3.83;;;3.53;;
10934;SDS011;5520;45.752;4.874;2023-04-10T05:25:20;4.53;;;4.13;;
10934;SDS011;5520;45.752;4.874;2023-04-10T05:27:48;7.37;;;4.40;;
10934;SDS011;5520;45.752;4.874;2023-04-10T05:30:18;4.90;;;4.40;;
10934;SDS011;5520;45.752;4.874;2023-04-10T05:32:46;4.90;;;4.50;;
10934;SDS011;5520;45.752;4.874;2023-04-10T05:35:14;6.17;;;4.53;;
10934;SDS011;5520;45.752;4.874;2023-04-10T05:37:42;4.37;;;4.00;;
10934;SDS011;5520;45.752;4.874;2023-04-10T05:40:10;7.93;;;4.27;;
10934;SDS011;5520;45.752;4.874;2023-04-10T05:42:38;4.37;;;3.97;;
10934;SDS011;5520;45.752;4.874;2023-04-10T05:45:06;4.67;;;3.83;;
10934;SDS011;5520;45.752;4.874;2023-04-10T05:47:36;5.80;;;3.90;;
10934;SDS011;5520;45.752;4.874;2023-04-10T05:50:04;8.20;;;4.73;;
10934;SDS011;5520;45.752;4.874;2023-04-10T05:52:32;5.60;;;4.10;;
10934;SDS011;5520;45.752;4.874;2023-04-10T05:55:00;4.73;;;4.23;;
10934;SDS011;5520;45.752;4.874;2023-04-10T05:57:28;6.13;;;3.77;;
10934;SDS011;5520;45.752;4.874;2023-04-10T05:59:56;9.93;;;4.97;;
10934;SDS011;5520;45.752;4.874;2023-04-10T06:02:24;5.23;;;3.83;;
10934;SDS011;5520;45.752;4.874;2023-04-10T06:04:54;8.33;;;4.20;;
10934;SDS011;5520;45.752;4.874;2023-04-10T06:07:23;5.47;;;3.97;;
10934;SDS011;5520;45.752;4.874;2023-04-10T06:09:51;5.60;;;3.90;;
10934;SDS011;5520;45.752;4.874;2023-04-10T06:12:19;5.17;;;3.80;;
10934;SDS011;5520;45.752;4.874;2023-04-10T06:14:47;5.40;;;3.70;;
10934;SDS011;5520;45.752;4.874;2023-04-10T06:17:15;4.10;;;3.73;;
10934;SDS011;5520;45.752;4.874;2023-04-10T06:19:43;3.70;;;3.40;;
10934;SDS011;5520;45.752;4.874;2023-04-10T06:22:12;4.77;;;3.90;;
10934;SDS011;5520;45.752;4.874;2023-04-10T06:24:40;4.40;;;3.60;;
10934;SDS011;5520;45.752;4.874;2023-04-10T06:27:08;5.57;;;3.90;;
10934;SDS011;5520;45.752;4.874;2023-04-10T06:29:37;5.10;;;4.10;;
10934;SDS011;5520;45.752;4.874;2023-04-10T06:32:05;4.73;;;4.13;;
10934;SDS011;5520;45.752;4.874;2023-04-10T06:34:33;5.27;;;3.67;;
10934;SDS011;5520;45.752;4.874;2023-04-10T06:37:01;5.87;;;4.57;;
10934;SDS011;5520;45.752;4.874;2023-04-10T06:39:31;9.27;;;4.47;;
10934;SDS011;5520;45.752;4.874;2023-04-10T06:41:59;5.87;;;3.77;;
10934;SDS011;5520;45.752;4.874;2023-04-10T06:44:28;7.60;;;4.17;;
10934;SDS011;5520;45.752;4.874;2023-04-10T06:46:56;6.10;;;4.53;;
10934;SDS011;5520;45.752;4.874;2023-04-10T06:49:24;4.40;;;4.00;;
10934;SDS011;5520;45.752;4.874;2023-04-10T06:51:52;4.93;;;4.37;;
10934;SDS011;5520;45.752;4.874;2023-04-10T06:54:20;5.63;;;4.27;;
10934;SDS011;5520;45.752;4.874;2023-04-10T06:56:49;5.07;;;4.30;;
10934;SDS011;5520;45.752;4.874;2023-04-10T06:59:17;4.90;;;4.50;;
10934;SDS011;5520;45.752;4.874;2023-04-10T07:01:45;4.37;;;3.97;;
10934;SDS011;5520;45.752;4.874;2023-04-10T07:04:13;5.10;;;4.60;;
10934;SDS011;5520;45.752;4.874;2023-04-10T07:06:41;4.93;;;3.97;;
10934;SDS011;5520;45.752;4.874;2023-04-10T07:09:09;4.53;;;4.00;;
10934;SDS011;5520;45.752;4.874;2023-04-10T07:11:37;6.40;;;4.00;;
10934;SDS011;5520;45.752;4.874;2023-04-10T07:14:06;4.77;;;3.77;;
10934;SDS011;5520;45.752;4.874;2023-04-10T07:16:34;6.20;;;4.17;;
10934;SDS011;5520;45.752;4.874;2023-04-10T07:19:02;5.07;;;3.63;;
10934;SDS011;5520;45.752;4.874;2023-04-10T07:21:30;9.83;;;4.37;;
10934;SDS011;5520;45.752;4.874;2023-04-10T07:23:58;4.17;;;3.77;;
10934;SDS011;5520;45.752;4.874;2023-04-10T07:26:26;5.13;;;4.20;;
10934;SDS011;5520;45.752;4.874;2023-04-10T07:28:54;7.10;;;4.50;;
10934;SDS011;5520;45.752;4.874;2023-04-10T07:31:23;6.97;;;4.00;;
10934;SDS011;5520;45.752;4.874;2023-04-10T07:33:52;5.57;;;4.80;;
10934;SDS011;5520;45.752;4.874;2023-04-10T07:36:19;10.97;;;4.90;;
10934;SDS011;5520;45.752;4.874;2023-04-10T07:38:47;5.23;;;3.77;;
10934;SDS011;5520;45.752;4.874;2023-04-10T07:41:16;6.70;;;4.17;;
10934;SDS011;5520;45.752;4.874;2023-04-10T07:43:44;7.23;;;4.40;;
10934;SDS011;5520;45.752;4.874;2023-04-10T07:46:12;5.07;;;4.57;;
10934;SDS011;5520;45.752;4.874;2023-04-10T07:48:41;4.97;;;4.53;;
10934;SDS011;5520;45.752;4.874;2023-04-10T07:51:09;9.60;;;5.03;;
10934;SDS011;5520;45.752;4.874;2023-04-10T07:53:37;6.57;;;4.37;;
10934;SDS011;5520;45.752;4.874;2023-04-10T07:56:06;7.20;;;4.30;;
10934;SDS011;5520;45.752;4.874;2023-04-10T07:58:36;7.30;;;4.97;;
10934;SDS011;5520;45.752;4.874;2023-04-10T08:01:05;6.03;;;4.93;;
10934;SDS011;5520;45.752;4.874;2023-04-10T08:03:36;8.03;;;4.83;;
10934;SDS011;5520;45.752;4.874;2023-04-10T08:06:06;8.60;;;4.77;;
10934;SDS011;5520;45.752;4.874;2023-04-10T08:08:35;4.97;;;4.43;;
10934;SDS011;5520;45.752;4.874;2023-04-10T08:11:03;4.77;;;4.37;;
10934;SDS011;5520;45.752;4.874;2023-04-10T08:13:31;4.93;;;4.37;;
10934;SDS011;5520;45.752;4.874;2023-04-10T08:15:59;6.63;;;4.47;;
10934;SDS011;5520;45.752;4.874;2023-04-10T08:18:27;6.13;;;4.10;;
10934;SDS011;5520;45.752;4.874;2023-04-10T08:20:55;4.27;;;3.70;;
10934;SDS011;5520;45.752;4.874;2023-04-10T08:23:24;5.77;;;3.23;;
10934;SDS011;5520;45.752;4.874;2023-04-10T08:25:52;6.33;;;4.00;;
10934;SDS011;5520;45.752;4.874;2023-04-10T08:28:20;4.83;;;3.80;;
10934;SDS011;5520;45.752;4.874;2023-04-10T08:30:48;4.50;;;3.53;;
10934;SDS011;5520;45.752;4.874;2023-04-10T08:33:16;4.37;;;3.27;;
10934;SDS011;5520;45.752;4.874;2023-04-10T08:35:46;5.00;;;3.70;;
10934;SDS011;5520;45.752;4.874;2023-04-10T08:38:13;4.53;;;3.70;;
10934;SDS011;5520;45.752;4.874;2023-04-10T08:40:43;5.30;;;3.67;;
10934;SDS011;5520;45.752;4.874;2023-04-10T08:43:11;7.20;;;4.00;;
10934;SDS011;5520;45.752;4.874;2023-04-10T08:45:39;3.80;;;3.50;;
10934;SDS011;5520;45.752;4.874;2023-04-10T08:48:07;4.33;;;3.93;;
10934;SDS011;5520;45.752;4.874;2023-04-10T08:50:37;3.57;;;3.27;;
10934;SDS011;5520;45.752;4.874;2023-04-10T08:53:09;3.63;;;3.33;;
10934;SDS011;5520;45.752;4.874;2023-04-10T08:55:38;4.70;;;3.10;;
10934;SDS011;5520;45.752;4.874;2023-04-10T08:58:07;3.60;;;3.30;;
10934;SDS011;5520;45.752;4.874;2023-04-10T09:00:36;4.20;;;3.50;;
10934;SDS011;5520;45.752;4.874;2023-04-10T09:03:06;4.83;;;3.50;;
10934;SDS011;5520;45.752;4.874;2023-04-10T09:05:37;3.20;;;2.90;;
10934;SDS011;5520;45.752;4.874;2023-04-10T09:08:06;2.77;;;2.57;;
10934;SDS011;5520;45.752;4.874;2023-04-10T09:10:34;3.23;;;2.90;;
10934;SDS011;5520;45.752;4.874;2023-04-10T09:13:02;3.67;;;2.97;;
10934;SDS011;5520;45.752;4.874;2023-04-10T09:15:31;3.30;;;3.00;;
10934;SDS011;5520;45.752;4.874;2023-04-10T09:18:19;2.90;;;2.70;;
10934;SDS011;5520;45.752;4.874;2023-04-10T09:20:47;5.33;;;3.47;;
10934;SDS011;5520;45.752;4.874;2023-04-10T09:23:20;3.30;;;3.00;;
10934;SDS011;5520;45.752;4.874;2023-04-10T09:25:48;3.47;;;3.17;;
10934;SDS011;5520;45.752;4.874;2023-04-10T09:28:16;3.23;;;2.93;;
10934;SDS011;5520;45.752;4.874;2023-04-10T09:30:46;3.70;;;3.20;;
10934;SDS011;5520;45.752;4.874;2023-04-10T09:33:23;7.50;;;2.93;;
10934;SDS011;5520;45.752;4.874;2023-04-10T09:35:53;3.10;;;2.90;;
10934;SDS011;5520;45.752;4.874;2023-04-10T09:38:21;2.77;;;2.43;;
10934;SDS011;5520;45.752;4.874;2023-04-10T09:40:49;2.63;;;2.27;;
10934;SDS011;5520;45.752;4.874;2023-04-10T09:43:20;4.07;;;2.77;;
10934;SDS011;5520;45.752;4.874;2023-04-10T09:45:51;2.77;;;2.57;;
10934;SDS011;5520;45.752;4.874;2023-04-10T09:48:20;2.77;;;2.57;;
10934;SDS011;5520;45.752;4.874;2023-04-10T09:50:48;3.57;;;3.10;;
10934;SDS011;5520;45.752;4.874;2023-04-10T09:53:17;3.37;;;3.07;;
10934;SDS011;5520;45.752;4.874;2023-04-10T09:55:46;3.30;;;3.00;;
10934;SDS011;5520;45.752;4.874;2023-04-10T09:58:14;3.10;;;2.80;;
10934;SDS011;5520;45.752;4.874;2023-04-10T10:00:43;3.23;;;2.80;;
10934;SDS011;5520;45.752;4.874;2023-04-10T10:03:13;3.03;;;2.70;;
10934;SDS011;5520;45.752;4.874;2023-04-10T10:05:42;3.67;;;3.03;;
10934;SDS011;5520;45.752;4.874;2023-04-10T10:08:11;3.23;;;2.97;;
10934;SDS011;5520;45.752;4.874;2023-04-10T10:10:41;3.13;;;2.73;;
10934;SDS011;5520;45.752;4.874;2023-04-10T10:13:11;3.40;;;3.10;;
10934;SDS011;5520;45.752;4.874;2023-04-10T10:15:43;3.10;;;2.70;;
10934;SDS011;5520;45.752;4.874;2023-04-10T10:18:16;2.53;;;2.33;;
10934;SDS011;5520;45.752;4.874;2023-04-10T10:20:47;2.67;;;2.47;;
10934;SDS011;5520;45.752;4.874;2023-04-10T10:23:16;2.67;;;2.40;;
10934;SDS011;5520;45.752;4.874;2023-04-10T10:25:46;3.07;;;2.53;;
10934;SDS011;5520;45.752;4.874;2023-04-10T10:28:15;2.73;;;2.27;;
10934;SDS011;5520;45.752;4.874;2023-04-10T10:30:44;3.40;;;3.00;;
10934;SDS011;5520;45.752;4.874;2023-04-10T10:33:13;2.87;;;2.30;;
10934;SDS011;5520;45.752;4.874;2023-04-10T10:35:43;2.97;;;2.67;;
10934;SDS011;5520;45.752;4.874;2023-04-10T10:38:11;2.83;;;2.27;;
10934;SDS011;5520;45.752;4.874;2023-04-10T10:40:40;2.50;;;2.30;;
10934;SDS011;5520;45.752;4.874;2023-04-10T10:43:11;4.00;;;2.30;;
10934;SDS011;5520;45.752;4.874;2023-04-10T10:45:41;2.33;;;2.13;;
10934;SDS011;5520;45.752;4.874;2023-04-10T10:48:13;2.23;;;2.10;;
10934;SDS011;5520;45.752;4.874;2023-04-10T10:50:53;2.20;;;2.00;;
10934;SDS011;5520;45.752;4.874;2023-04-10T10:53:32;2.80;;;2.33;;
10934;SDS011;5520;45.752;4.874;2023-04-10T10:58:48;5.20;;;2.40;;
10934;SDS011;5520;45.752;4.874;2023-04-10T11:01:16;2.60;;;2.40;;
10934;SDS011;5520;45.752;4.874;2023-04-10T11:03:45;2.17;;;1.97;;
10934;SDS011;5520;45.752;4.874;2023-04-10T11:06:15;2.73;;;2.30;;
10934;SDS011;5520;45.752;4.874;2023-04-10T11:08:45;2.20;;;2.00;;
10934;SDS011;5520;45.752;4.874;2023-04-10T11:11:14;2.40;;;2.17;;
10934;SDS011;5520;45.752;4.874;2023-04-10T11:16:40;2.20;;;2.10;;
10934;SDS011;5520;45.752;4.874;2023-04-10T11:19:09;2.33;;;2.00;;
10934;SDS011;5520;45.752;4.874;2023-04-10T11:27:42;3.50;;;1.90;;
10934;SDS011;5520;45.752;4.874;2023-04-10T11:30:27;2.33;;;1.83;;
10934;SDS011;5520;45.752;4.874;2023-04-10T11:32:56;1.90;;;1.70;;
10934;SDS011;5520;45.752;4.874;2023-04-10T11:35:24;3.43;;;2.53;;
10934;SDS011;5520;45.752;4.874;2023-04-10T11:38:06;2.20;;;1.90;;
10934;SDS011;5520;45.752;4.874;2023-04-10T11:40:34;2.03;;;1.63;;
10934;SDS011;5520;45.752;4.874;2023-04-10T11:43:13;2.03;;;1.80;;
10934;SDS011;5520;45.752;4.874;2023-04-10T11:45:41;2.07;;;1.70;;
10934;SDS011;5520;45.752;4.874;2023-04-10T11:48:09;1.87;;;1.77;;
10934;SDS011;5520;45.752;4.874;2023-04-10T11:50:37;4.67;;;2.20;;
10934;SDS011;5520;45.752;4.874;2023-04-10T11:53:15;2.13;;;1.90;;
10934;SDS011;5520;45.752;4.874;2023-04-10T11:55:43;3.77;;;2.10;;
10934;SDS011;5520;45.752;4.874;2023-04-10T11:58:26;1.80;;;1.70;;
10934;SDS011;5520;45.752;4.874;2023-04-10T12:00:54;2.07;;;1.80;;
10934;SDS011;5520;45.752;4.874;2023-04-10T12:03:32;2.10;;;2.00;;
10934;SDS011;5520;45.752;4.874;2023-04-10T12:06:00;3.03;;;1.97;;
10934;SDS011;5520;45.752;4.874;2023-04-10T12:08:32;2.57;;;2.17;;
10934;SDS011;5520;45.752;4.874;2023-04-10T12:11:00;1.50;;;1.40;;
10934;SDS011;5520;45.752;4.874;2023-04-10T12:13:30;2.60;;;1.30;;
10934;SDS011;5520;45.752;4.874;2023-04-10T12:15:58;3.47;;;1.90;;
10934;SDS011;5520;45.752;4.874;2023-04-10T12:18:27;3.93;;;1.67;;
10934;SDS011;5520;45.752;4.874;2023-04-10T12:20:56;2.47;;;1.63;;
10934;SDS011;5520;45.752;4.874;2023-04-10T12:23:25;1.90;;;1.80;;
10934;SDS011;5520;45.752;4.874;2023-04-10T12:26:05;1.70;;;1.60;;
10934;SDS011;5520;45.752;4.874;2023-04-10T12:28:36;2.47;;;1.80;;
10934;SDS011;5520;45.752;4.874;2023-04-10T12:31:04;3.23;;;1.77;;
10934;SDS011;5520;45.752;4.874;2023-04-10T12:33:32;2.40;;;2.17;;
10934;SDS011;5520;45.752;4.874;2023-04-10T12:36:04;2.30;;;1.70;;
10934;SDS011;5520;45.752;4.874;2023-04-10T12:38:38;1.80;;;1.70;;
10934;SDS011;5520;45.752;4.874;2023-04-10T12:41:07;1.70;;;1.60;;
10934;SDS011;5520;45.752;4.874;2023-04-10T12:43:37;1.97;;;1.87;;
10934;SDS011;5520;45.752;4.874;2023-04-10T12:46:06;2.07;;;1.87;;
10934;SDS011;5520;45.752;4.874;2023-04-10T12:48:34;1.90;;;1.70;;
10934;SDS011;5520;45.752;4.874;2023-04-10T12:51:03;1.47;;;1.37;;
10934;SDS011;5520;45.752;4.874;2023-04-10T12:53:31;2.47;;;2.07;;
10934;SDS011;5520;45.752;4.874;2023-04-10T12:56:09;1.80;;;1.70;;
10934;SDS011;5520;45.752;4.874;2023-04-10T12:58:41;1.93;;;1.57;;
10934;SDS011;5520;45.752;4.874;2023-04-10T13:01:09;1.73;;;1.50;;
10934;SDS011;5520;45.752;4.874;2023-04-10T13:03:39;1.80;;;1.70;;
10934;SDS011;5520;45.752;4.874;2023-04-10T13:06:08;1.67;;;1.57;;
10934;SDS011;5520;45.752;4.874;2023-04-10T13:08:36;2.53;;;1.90;;
10934;SDS011;5520;45.752;4.874;2023-04-10T13:11:04;1.67;;;1.43;;
10934;SDS011;5520;45.752;4.874;2023-04-10T13:13:32;1.63;;;1.50;;
10934;SDS011;5520;45.752;4.874;2023-04-10T13:16:02;2.20;;;2.00;;
10934;SDS011;5520;45.752;4.874;2023-04-10T13:18:30;3.10;;;1.50;;
10934;SDS011;5520;45.752;4.874;2023-04-10T13:20:58;2.63;;;1.73;;
10934;SDS011;5520;45.752;4.874;2023-04-10T13:23:26;2.00;;;1.70;;
10934;SDS011;5520;45.752;4.874;2023-04-10T13:25:54;2.03;;;1.60;;
10934;SDS011;5520;45.752;4.874;2023-04-10T13:28:24;2.87;;;1.57;;
10934;SDS011;5520;45.752;4.874;2023-04-10T13:30:52;1.80;;;1.70;;
10934;SDS011;5520;45.752;4.874;2023-04-10T13:33:21;1.80;;;1.70;;
10934;SDS011;5520;45.752;4.874;2023-04-10T13:35:50;2.07;;;1.60;;
10934;SDS011;5520;45.752;4.874;2023-04-10T13:38:18;2.53;;;1.50;;
10934;SDS011;5520;45.752;4.874;2023-04-10T13:40:46;1.97;;;1.33;;
10934;SDS011;5520;45.752;4.874;2023-04-10T13:43:14;1.20;;;1.20;;
10934;SDS011;5520;45.752;4.874;2023-04-10T13:45:42;2.00;;;1.60;;
10934;SDS011;5520;45.752;4.874;2023-04-10T13:48:10;2.97;;;2.00;;
10934;SDS011;5520;45.752;4.874;2023-04-10T13:50:39;1.40;;;1.30;;
10934;SDS011;5520;45.752;4.874;2023-04-10T13:53:07;1.90;;;1.40;;
10934;SDS011;5520;45.752;4.874;2023-04-10T13:55:35;1.50;;;1.30;;
10934;SDS011;5520;45.752;4.874;2023-04-10T13:58:05;1.63;;;1.20;;
10934;SDS011;5520;45.752;4.874;2023-04-10T14:00:33;1.90;;;1.47;;
10934;SDS011;5520;45.752;4.874;2023-04-10T14:03:01;1.43;;;1.33;;
10934;SDS011;5520;45.752;4.874;2023-04-10T14:05:30;1.30;;;1.30;;
10934;SDS011;5520;45.752;4.874;2023-04-10T14:07:59;1.63;;;1.40;;
10934;SDS011;5520;45.752;4.874;2023-04-10T14:10:27;2.40;;;1.40;;
10934;SDS011;5520;45.752;4.874;2023-04-10T14:12:55;2.50;;;1.63;;
10934;SDS011;5520;45.752;4.874;2023-04-10T14:15:23;1.50;;;1.40;;
10934;SDS011;5520;45.752;4.874;2023-04-10T14:17:51;1.27;;;1.17;;
10934;SDS011;5520;45.752;4.874;2023-04-10T14:20:19;1.17;;;1.10;;
10934;SDS011;5520;45.752;4.874;2023-04-10T14:22:47;1.27;;;1.23;;
10934;SDS011;5520;45.752;4.874;2023-04-10T14:25:17;1.30;;;1.20;;
10934;SDS011;5520;45.752;4.874;2023-04-10T14:27:45;1.77;;;1.30;;
10934;SDS011;5520;45.752;4.874;2023-04-10T14:30:13;0.90;;;0.90;;
10934;SDS011;5520;45.752;4.874;2023-04-10T14:32:41;1.73;;;1.30;;
10934;SDS011;5520;45.752;4.874;2023-04-10T14:35:09;1.40;;;1.27;;
10934;SDS011;5520;45.752;4.874;2023-04-10T14:37:37;1.70;;;1.60;;
10934;SDS011;5520;45.752;4.874;2023-04-10T14:40:06;1.47;;;1.37;;
10934;SDS011;5520;45.752;4.874;2023-04-10T14:42:36;1.60;;;1.50;;
10934;SDS011;5520;45.752;4.874;2023-04-10T14:45:04;2.07;;;1.37;;
10934;SDS011;5520;45.752;4.874;2023-04-10T14:47:32;1.60;;;1.50;;
10934;SDS011;5520;45.752;4.874;2023-04-10T14:50:01;3.53;;;1.43;;
10934;SDS011;5520;45.752;4.874;2023-04-10T14:52:29;3.13;;;1.83;;
10934;SDS011;5520;45.752;4.874;2023-04-10T14:54:57;2.13;;;1.70;;
10934;SDS011;5520;45.752;4.874;2023-04-10T14:57:25;1.97;;;1.33;;
10934;SDS011;5520;45.752;4.874;2023-04-10T14:59:56;1.63;;;1.43;;
10934;SDS011;5520;45.752;4.874;2023-04-10T15:02:26;2.00;;;1.73;;
10934;SDS011;5520;45.752;4.874;2023-04-10T15:04:55;1.70;;;1.60;;
10934;SDS011;5520;45.752;4.874;2023-04-10T15:07:23;1.20;;;1.20;;
10934;SDS011;5520;45.752;4.874;2023-04-10T15:09:55;2.33;;;1.30;;
10934;SDS011;5520;45.752;4.874;2023-04-10T15:12:23;2.13;;;1.23;;
10934;SDS011;5520;45.752;4.874;2023-04-10T15:14:51;2.40;;;2.07;;
10934;SDS011;5520;45.752;4.874;2023-04-10T15:17:21;3.33;;;2.00;;
10934;SDS011;5520;45.752;4.874;2023-04-10T15:19:49;1.50;;;1.40;;
10934;SDS011;5520;45.752;4.874;2023-04-10T15:22:17;3.00;;;2.20;;
10934;SDS011;5520;45.752;4.874;2023-04-10T15:24:45;1.60;;;1.50;;